»·PEaware :: N9JA KSAD-KLAS

N9JA :: KSAD-KLAS

FLIGHT INFORMATION

Flight Status: Arrived
Operator: Privately registered:
United States
More flights under this callsign
Pilot: Drew L. (13237)
Aircraft: SOCATA TBM-900
(TBM9)
More flights by this aircraft type
Origin: KSAD Safford Regl
United States
Destination: KLAS McCarran Intl
United States
More flights between these airports :: More routes between these airports
Route: +DRK V105 BLD
File this flight plan on PilotEdge
Remarks:
Altitude:
(Current/Filed)
30,000ft
Speed:
(Current/Filed)
180kts
Departed: 04-Aug-20 02:20 PM
Arrived: 04-Aug-20 03:38 PM
Distance/Time
Traveled:
335nm/1:18
Distance/Time
To Go:
Arrived

Flight Plot

Page will automatically refresh every two minutes.

Flight plan parsing failed; only flown route is shown


Map Options




Map Legend


Flown Route
Filed Route
Departure Airport
Arrival Airport
Navaid (VOR, NDB)
Fix

Horizontal Profiles

Position Reports

Time Latitude Longitude Heading Altitude Ground
Speed
04-Aug-20 13:00 32.852222 -109.637817 358 3166ft 0kts
04-Aug-20 13:01 32.852222 -109.637817 358 3166ft 0kts
04-Aug-20 13:02 32.852222 -109.637817 358 3166ft 0kts
04-Aug-20 13:03 32.852222 -109.637817 358 3166ft 0kts
04-Aug-20 13:04 32.852222 -109.637817 358 3166ft 0kts
04-Aug-20 13:05 32.852222 -109.637817 358 3166ft 0kts
04-Aug-20 13:06 32.852222 -109.637817 358 3166ft 0kts
04-Aug-20 13:07 32.852222 -109.637817 358 3166ft 0kts
04-Aug-20 13:08 32.852222 -109.637817 358 3166ft 0kts
04-Aug-20 13:09 32.852222 -109.637817 358 3166ft 0kts
04-Aug-20 13:10 32.852222 -109.637817 358 3166ft 0kts
04-Aug-20 13:11 32.852222 -109.637817 358 3166ft 0kts
04-Aug-20 13:12 32.852222 -109.637817 358 3166ft 0kts
04-Aug-20 13:13 32.852222 -109.637817 358 3166ft 0kts
04-Aug-20 13:14 32.852222 -109.637817 358 3166ft 0kts
04-Aug-20 13:15 32.852222 -109.637817 358 3166ft 0kts
04-Aug-20 13:16 32.852222 -109.637817 358 3166ft 0kts
04-Aug-20 13:17 32.852222 -109.637817 358 3166ft 0kts
04-Aug-20 13:18 32.852222 -109.637817 358 3166ft 0kts
04-Aug-20 13:19 32.852222 -109.637817 358 3166ft 0kts
04-Aug-20 13:20 32.852222 -109.637817 358 3166ft 0kts
04-Aug-20 13:21 32.852222 -109.637817 358 3166ft 0kts
04-Aug-20 13:22 32.852222 -109.637817 358 3166ft 0kts
04-Aug-20 13:23 32.852222 -109.637817 358 3166ft 0kts
04-Aug-20 13:24 32.852222 -109.637817 358 3166ft 0kts
04-Aug-20 13:25 32.852222 -109.637817 358 3166ft 0kts
04-Aug-20 13:26 32.852222 -109.637817 358 3166ft 0kts
04-Aug-20 13:27 32.852222 -109.637817 358 3166ft 0kts
04-Aug-20 13:28 32.852222 -109.637817 358 3166ft 0kts
04-Aug-20 13:29 32.852222 -109.637817 358 3166ft 0kts
04-Aug-20 13:30 32.852222 -109.637817 358 3166ft 0kts
04-Aug-20 13:31 32.852222 -109.637817 358 3166ft 0kts
04-Aug-20 13:32 32.852222 -109.637817 358 3166ft 0kts
04-Aug-20 13:33 32.852222 -109.637817 358 3166ft 0kts
04-Aug-20 13:34 32.852222 -109.637817 358 3166ft 0kts
04-Aug-20 13:35 32.852222 -109.637817 358 3166ft 0kts
04-Aug-20 13:36 32.852222 -109.637817 358 3166ft 0kts
04-Aug-20 13:37 32.852222 -109.637817 358 3166ft 0kts
04-Aug-20 13:38 32.852222 -109.637817 358 3166ft 0kts
04-Aug-20 13:39 32.852222 -109.637817 358 3166ft 0kts
04-Aug-20 13:40 32.852222 -109.637817 358 3166ft 0kts
04-Aug-20 13:41 32.852222 -109.637817 358 3166ft 0kts
04-Aug-20 13:42 32.852222 -109.637817 358 3166ft 0kts
04-Aug-20 13:43 32.852222 -109.637817 358 3166ft 0kts
04-Aug-20 13:44 32.852222 -109.637817 358 3166ft 0kts
04-Aug-20 13:45 32.852222 -109.637817 358 3166ft 0kts
04-Aug-20 13:46 32.852222 -109.637817 358 3166ft 0kts
04-Aug-20 13:47 32.852222 -109.637817 358 3166ft 0kts
04-Aug-20 13:48 32.852222 -109.637817 358 3166ft 0kts
04-Aug-20 13:49 32.852222 -109.637817 358 3166ft 0kts
04-Aug-20 13:50 32.852222 -109.637817 358 3166ft 0kts
04-Aug-20 13:51 32.852222 -109.637817 358 3166ft 0kts
04-Aug-20 13:52 32.852222 -109.637817 358 3166ft 0kts
04-Aug-20 13:53 32.852222 -109.637817 358 3166ft 0kts
04-Aug-20 13:54 32.852222 -109.637817 358 3166ft 0kts
04-Aug-20 13:55 32.852222 -109.637817 358 3166ft 0kts
04-Aug-20 13:56 32.852222 -109.637817 358 3166ft 0kts
04-Aug-20 13:57 32.852222 -109.637817 358 3166ft 0kts
04-Aug-20 13:58 32.852222 -109.637817 358 3166ft 0kts
04-Aug-20 13:59 32.852222 -109.637817 358 3166ft 0kts
04-Aug-20 14:00 32.852222 -109.637817 358 3166ft 0kts
04-Aug-20 14:01 32.852222 -109.637817 358 3166ft 0kts
04-Aug-20 14:02 32.852222 -109.637817 358 3166ft 0kts
04-Aug-20 14:03 32.852222 -109.637817 358 3166ft 0kts
04-Aug-20 14:04 32.852222 -109.637817 358 3166ft 0kts
04-Aug-20 14:05 32.852222 -109.637817 358 3166ft 0kts
04-Aug-20 14:06 32.852222 -109.637817 358 3166ft 0kts
04-Aug-20 14:07 32.852222 -109.637817 358 3166ft 0kts
04-Aug-20 14:08 32.852222 -109.637817 358 3166ft 0kts
04-Aug-20 14:09 32.852222 -109.637817 358 3166ft 0kts
04-Aug-20 14:10 32.852222 -109.637817 358 3166ft 0kts
04-Aug-20 14:11 32.852222 -109.637817 358 3166ft 0kts
04-Aug-20 14:12 32.852223 -109.637818 358 3166ft 0kts
04-Aug-20 14:13 32.852223 -109.637818 358 3166ft 0kts
04-Aug-20 14:14 32.852223 -109.637818 358 3166ft 0kts
04-Aug-20 14:15 32.852224 -109.637818 358 3166ft 0kts
04-Aug-20 14:16 32.852769 -109.637336 122 3167ft 9kts
04-Aug-20 14:17 32.850965 -109.634078 136 3169ft 13kts
04-Aug-20 14:18 32.847592 -109.630158 134 3170ft 19kts
04-Aug-20 14:19 32.850322 -109.632294 315 3171ft 86kts
04-Aug-20 14:20 32.873468 -109.659598 311 4731ft 131kts
04-Aug-20 14:21 32.903137 -109.696342 312 6428ft 166kts
04-Aug-20 14:22 32.930542 -109.735974 304 8197ft 172kts
04-Aug-20 14:23 32.959227 -109.782372 304 10261ft 178kts
04-Aug-20 14:24 32.988944 -109.830654 304 12183ft 184kts
04-Aug-20 14:25 33.019514 -109.880417 303 14123ft 189kts
04-Aug-20 14:26 33.051251 -109.930775 305 16100ft 193kts
04-Aug-20 14:27 33.085122 -109.981497 304 17867ft 199kts
04-Aug-20 14:28 33.120182 -110.033909 304 19479ft 204kts
04-Aug-20 14:29 33.155787 -110.087207 304 20933ft 208kts
04-Aug-20 14:30 33.192248 -110.141843 305 22263ft 212kts
04-Aug-20 14:31 33.229723 -110.198079 305 24000ft 219kts
04-Aug-20 14:32 33.267927 -110.255496 305 25907ft 224kts
04-Aug-20 14:33 33.308435 -110.313431 307 27596ft 230kts
04-Aug-20 14:34 33.349071 -110.373919 305 29129ft 235kts
04-Aug-20 14:35 33.390403 -110.436448 306 30234ft 248kts
04-Aug-20 14:36 33.436230 -110.505939 306 30209ft 277kts
04-Aug-20 14:37 33.485804 -110.581245 306 30164ft 290kts
04-Aug-20 14:39 33.536464 -110.658357 305 30189ft 291kts
04-Aug-20 14:40 33.586818 -110.735161 305 30276ft 288kts
04-Aug-20 14:41 33.636405 -110.810956 305 30297ft 289kts
04-Aug-20 14:42 33.685976 -110.886885 305 30276ft 290kts
04-Aug-20 14:43 33.735885 -110.963480 305 30258ft 291kts
04-Aug-20 14:44 33.786144 -111.040788 305 30274ft 292kts
04-Aug-20 14:45 33.836397 -111.118264 305 30274ft 294kts
04-Aug-20 14:46 33.887300 -111.196898 305 30257ft 296kts
04-Aug-20 14:47 33.938238 -111.275770 305 30274ft 296kts
04-Aug-20 14:48 33.989405 -111.355161 305 30275ft 296kts
04-Aug-20 14:49 34.040517 -111.434637 305 30275ft 296kts
04-Aug-20 14:50 34.091427 -111.513976 305 30274ft 296kts
04-Aug-20 14:51 34.141568 -111.592284 305 30272ft 296kts
04-Aug-20 14:52 34.192434 -111.671912 304 30252ft 296kts
04-Aug-20 14:53 34.243242 -111.751612 304 30270ft 296kts
04-Aug-20 14:54 34.293772 -111.831058 304 30262ft 296kts
04-Aug-20 14:54 34.335890 -111.897416 304 30250ft 296kts
04-Aug-20 14:56 34.394795 -111.990429 304 30245ft 296kts
04-Aug-20 14:57 34.445110 -112.070064 304 30253ft 296kts
04-Aug-20 14:57 34.486952 -112.136424 304 30255ft 296kts
04-Aug-20 14:59 34.545595 -112.229641 304 30255ft 296kts
04-Aug-20 14:59 34.587628 -112.296607 304 30255ft 296kts
04-Aug-20 15:00 34.637742 -112.376615 304 30255ft 296kts
04-Aug-20 15:02 34.696266 -112.470275 304 30238ft 298kts
04-Aug-20 15:02 34.735916 -112.539829 301 30238ft 297kts
04-Aug-20 15:03 34.783053 -112.624045 301 30237ft 297kts
04-Aug-20 15:04 34.830291 -112.708640 301 30239ft 298kts
04-Aug-20 15:05 34.877243 -112.792913 301 30239ft 298kts
04-Aug-20 15:06 34.924058 -112.877134 300 30239ft 298kts
04-Aug-20 15:07 34.970901 -112.961635 300 30239ft 297kts
04-Aug-20 15:08 35.017553 -113.046012 300 30239ft 297kts
04-Aug-20 15:09 35.064293 -113.130742 300 30191ft 297kts
04-Aug-20 15:10 35.110702 -113.215066 300 30136ft 296kts
04-Aug-20 15:11 35.157087 -113.299552 300 30089ft 296kts
04-Aug-20 15:12 35.204739 -113.386591 300 28736ft 316kts
04-Aug-20 15:13 35.254506 -113.477697 300 27133ft 323kts
04-Aug-20 15:14 35.304884 -113.570150 300 25512ft 325kts
04-Aug-20 15:15 35.355346 -113.663002 300 23888ft 325kts
04-Aug-20 15:16 35.405608 -113.755731 300 22317ft 323kts
04-Aug-20 15:17 35.455322 -113.847693 300 20902ft 320kts
04-Aug-20 15:18 35.504781 -113.939427 300 19488ft 319kts
04-Aug-20 15:19 35.553826 -114.030620 300 18076ft 312kts
04-Aug-20 15:20 35.600623 -114.117872 300 16651ft 300kts
04-Aug-20 15:21 35.646486 -114.203601 300 15235ft 296kts
04-Aug-20 15:22 35.691709 -114.288341 300 13830ft 294kts
04-Aug-20 15:23 35.736779 -114.373000 300 12427ft 294kts
04-Aug-20 15:24 35.780170 -114.454661 300 12021ft 271kts
04-Aug-20 15:25 35.820644 -114.531037 300 12017ft 261kts
04-Aug-20 15:26 35.860721 -114.606866 300 11604ft 274kts
04-Aug-20 15:27 35.904192 -114.689288 300 10234ft 291kts
04-Aug-20 15:28 35.949004 -114.774447 300 8837ft 295kts
04-Aug-20 15:29 35.993895 -114.858262 310 7996ft 283kts
04-Aug-20 15:30 36.046574 -114.926743 310 7679ft 265kts
04-Aug-20 15:31 36.090195 -114.992495 306 6637ft 230kts
04-Aug-20 15:32 36.126622 -115.048042 306 5290ft 183kts
04-Aug-20 15:33 36.153340 -115.094213 273 3963ft 157kts
04-Aug-20 15:34 36.140134 -115.130315 222 3368ft 94kts
04-Aug-20 15:35 36.117739 -115.145947 200 2785ft 91kts
04-Aug-20 15:36 36.094421 -115.159494 203 2182ft 80kts
04-Aug-20 15:37 36.089356 -115.163527 293 2181ft 0kts
04-Aug-20 15:38 36.087943 -115.165546 204 2181ft 14kts
04-Aug-20 15:39 36.083787 -115.167922 203 2181ft 18kts
04-Aug-20 15:40 36.081415 -115.170916 220 2181ft 6kts
04-Aug-20 15:41 36.080841 -115.171083 270 2181ft 0kts
04-Aug-20 15:42 36.080841 -115.171083 270 2181ft 0kts
04-Aug-20 15:43 36.080841 -115.171083 270 2181ft 0kts
04-Aug-20 15:44 36.080841 -115.171083 270 2181ft 0kts
04-Aug-20 15:45 36.080841 -115.171083 270 2181ft 0kts
04-Aug-20 15:46 36.080841 -115.171083 270 2181ft 0kts

Navigation Log

Ident Type
Flight plan parsing failed, navigation log unavailable